sensor_id;sensor_type;location;lat;lon;timestamp;temperature;humidity
42803;DHT22;28447;48.682;9.022;2023-04-30T04:01:51;9.60;99.90
42803;DHT22;28447;48.682;9.022;2023-04-30T04:04:17;9.70;99.90
42803;DHT22;28447;48.682;9.022;2023-04-30T04:06:43;9.70;99.90
42803;DHT22;28447;48.682;9.022;2023-04-30T04:09:08;9.70;99.90
42803;DHT22;28447;48.682;9.022;2023-04-30T04:11:34;9.80;99.90
42803;DHT22;28447;48.682;9.022;2023-04-30T04:14:00;9.80;99.90
42803;DHT22;28447;48.682;9.022;2023-04-30T04:16:25;9.80;99.90
42803;DHT22;28447;48.682;9.022;2023-04-30T04:18:51;9.70;99.90
42803;DHT22;28447;48.682;9.022;2023-04-30T04:21:17;9.70;99.90
42803;DHT22;28447;48.682;9.022;2023-04-30T04:23:43;9.60;99.90
42803;DHT22;28447;48.682;9.022;2023-04-30T04:26:08;9.70;99.90
42803;DHT22;28447;48.682;9.022;2023-04-30T04:28:35;9.60;99.90
42803;DHT22;28447;48.682;9.022;2023-04-30T04:31:01;9.70;99.90
42803;DHT22;28447;48.682;9.022;2023-04-30T04:33:27;9.70;99.90
42803;DHT22;28447;48.682;9.022;2023-04-30T04:35:53;9.70;99.90
42803;DHT22;28447;48.682;9.022;2023-04-30T04:38:19;9.70;99.90
42803;DHT22;28447;48.682;9.022;2023-04-30T04:40:54;9.80;99.90
42803;DHT22;28447;48.682;9.022;2023-04-30T04:43:21;9.70;99.90
42803;DHT22;28447;48.682;9.022;2023-04-30T04:45:46;9.70;99.90
42803;DHT22;28447;48.682;9.022;2023-04-30T04:48:13;9.80;99.90
42803;DHT22;28447;48.682;9.022;2023-04-30T04:50:38;9.80;99.90
42803;DHT22;28447;48.682;9.022;2023-04-30T04:53:04;9.80;99.90
42803;DHT22;28447;48.682;9.022;2023-04-30T04:55:30;9.70;99.90
42803;DHT22;28447;48.682;9.022;2023-04-30T04:57:56;9.70;99.90
42803;DHT22;28447;48.682;9.022;2023-04-30T05:00:21;9.70;99.90
42803;DHT22;28447;48.682;9.022;2023-04-30T05:02:47;9.80;99.90
42803;DHT22;28447;48.682;9.022;2023-04-30T05:05:13;9.90;99.90
42803;DHT22;28447;48.682;9.022;2023-04-30T05:07:39;10.00;99.90
42803;DHT22;28447;48.682;9.022;2023-04-30T05:10:08;10.10;99.90
42803;DHT22;28447;48.682;9.022;2023-04-30T05:12:34;10.00;99.90
42803;DHT22;28447;48.682;9.022;2023-04-30T05:15:00;10.10;99.90
42803;DHT22;28447;48.682;9.022;2023-04-30T05:17:25;10.10;99.90
42803;DHT22;28447;48.682;9.022;2023-04-30T05:19:52;10.10;99.90
42803;DHT22;28447;48.682;9.022;2023-04-30T05:22:17;10.30;99.90
42803;DHT22;28447;48.682;9.022;2023-04-30T05:27:09;10.30;99.90
42803;DHT22;28447;48.682;9.022;2023-04-30T05:29:34;10.40;99.90
42803;DHT22;28447;48.682;9.022;2023-04-30T05:32:00;10.30;99.90
42803;DHT22;28447;48.682;9.022;2023-04-30T05:34:26;10.40;99.90
42803;DHT22;28447;48.682;9.022;2023-04-30T05:39:18;10.70;99.90
42803;DHT22;28447;48.682;9.022;2023-04-30T05:41:44;10.90;99.90
42803;DHT22;28447;48.682;9.022;2023-04-30T05:44:09;10.80;99.90
42803;DHT22;28447;48.682;9.022;2023-04-30T05:46:35;10.70;99.90
42803;DHT22;28447;48.682;9.022;2023-04-30T05:49:01;10.60;99.90
42803;DHT22;28447;48.682;9.022;2023-04-30T05:51:27;10.60;99.90
42803;DHT22;28447;48.682;9.022;2023-04-30T05:53:53;10.70;99.90
42803;DHT22;28447;48.682;9.022;2023-04-30T05:56:19;10.90;99.90
42803;DHT22;28447;48.682;9.022;2023-04-30T05:58:45;11.10;99.90
42803;DHT22;28447;48.682;9.022;2023-04-30T06:01:11;10.90;99.90
42803;DHT22;28447;48.682;9.022;2023-04-30T06:03:37;11.00;99.90
42803;DHT22;28447;48.682;9.022;2023-04-30T06:06:03;11.20;99.90
42803;DHT22;28447;48.682;9.022;2023-04-30T06:08:29;11.30;99.90
42803;DHT22;28447;48.682;9.022;2023-04-30T06:10:55;11.30;99.90
42803;DHT22;28447;48.682;9.022;2023-04-30T06:13:21;11.30;99.90
42803;DHT22;28447;48.682;9.022;2023-04-30T06:15:47;11.30;99.90
42803;DHT22;28447;48.682;9.022;2023-04-30T06:18:13;11.20;99.90
42803;DHT22;28447;48.682;9.022;2023-04-30T06:20:39;11.50;99.90
42803;DHT22;28447;48.682;9.022;2023-04-30T06:23:04;11.60;99.90
42803;DHT22;28447;48.682;9.022;2023-04-30T06:25:30;11.60;99.90
42803;DHT22;28447;48.682;9.022;2023-04-30T06:27:56;11.80;99.90
42803;DHT22;28447;48.682;9.022;2023-04-30T06:30:22;11.70;99.90
42803;DHT22;28447;48.682;9.022;2023-04-30T06:32:47;11.60;99.90
42803;DHT22;28447;48.682;9.022;2023-04-30T06:35:13;11.60;99.90
42803;DHT22;28447;48.682;9.022;2023-04-30T06:37:39;11.80;99.90
42803;DHT22;28447;48.682;9.022;2023-04-30T06:40:05;11.80;99.90
42803;DHT22;28447;48.682;9.022;2023-04-30T06:42:32;11.70;99.90
42803;DHT22;28447;48.682;9.022;2023-04-30T06:45:03;11.90;99.90
42803;DHT22;28447;48.682;9.022;2023-04-30T06:47:31;12.10;99.90
42803;DHT22;28447;48.682;9.022;2023-04-30T06:50:01;12.10;99.90
42803;DHT22;28447;48.682;9.022;2023-04-30T06:52:27;12.60;99.90
42803;DHT22;28447;48.682;9.022;2023-04-30T06:54:53;12.70;99.90
42803;DHT22;28447;48.682;9.022;2023-04-30T06:57:18;12.50;99.90
42803;DHT22;28447;48.682;9.022;2023-04-30T06:59:44;12.70;99.90
42803;DHT22;28447;48.682;9.022;2023-04-30T07:02:10;13.00;99.90
42803;DHT22;28447;48.682;9.022;2023-04-30T07:04:35;13.40;99.90
42803;DHT22;28447;48.682;9.022;2023-04-30T07:07:01;13.50;99.90
42803;DHT22;28447;48.682;9.022;2023-04-30T07:09:28;13.40;99.90
42803;DHT22;28447;48.682;9.022;2023-04-30T07:11:53;13.60;99.90
42803;DHT22;28447;48.682;9.022;2023-04-30T07:14:20;13.70;99.90
42803;DHT22;28447;48.682;9.022;2023-04-30T07:16:47;13.60;99.90
42803;DHT22;28447;48.682;9.022;2023-04-30T07:19:13;13.50;99.90
42803;DHT22;28447;48.682;9.022;2023-04-30T07:21:39;13.50;99.90
42803;DHT22;28447;48.682;9.022;2023-04-30T07:24:05;13.00;99.90
42803;DHT22;28447;48.682;9.022;2023-04-30T07:26:31;13.20;99.90
42803;DHT22;28447;48.682;9.022;2023-04-30T07:28:56;13.90;99.90
42803;DHT22;28447;48.682;9.022;2023-04-30T07:31:22;14.40;99.90
42803;DHT22;28447;48.682;9.022;2023-04-30T07:33:48;14.60;99.90
42803;DHT22;28447;48.682;9.022;2023-04-30T07:36:15;14.60;99.90
42803;DHT22;28447;48.682;9.022;2023-04-30T07:38:41;14.70;99.90
42803;DHT22;28447;48.682;9.022;2023-04-30T07:41:07;14.90;99.90
42803;DHT22;28447;48.682;9.022;2023-04-30T07:43:34;15.50;99.90
42803;DHT22;28447;48.682;9.022;2023-04-30T07:46:00;15.50;99.90
42803;DHT22;28447;48.682;9.022;2023-04-30T07:48:26;15.70;99.90
42803;DHT22;28447;48.682;9.022;2023-04-30T07:50:52;15.10;99.90
42803;DHT22;28447;48.682;9.022;2023-04-30T07:53:18;15.40;99.90
42803;DHT22;28447;48.682;9.022;2023-04-30T07:55:43;15.40;99.90
42803;DHT22;28447;48.682;9.022;2023-04-30T07:58:09;16.10;99.90
42803;DHT22;28447;48.682;9.022;2023-04-30T08:00:35;16.20;99.90
42803;DHT22;28447;48.682;9.022;2023-04-30T08:12:44;18.00;99.90
42803;DHT22;28447;48.682;9.022;2023-04-30T08:15:11;16.40;99.90
42803;DHT22;28447;48.682;9.022;2023-04-30T08:17:36;15.70;99.90
42803;DHT22;28447;48.682;9.022;2023-04-30T08:20:03;16.00;99.90
42803;DHT22;28447;48.682;9.022;2023-04-30T08:22:29;16.60;99.90
42803;DHT22;28447;48.682;9.022;2023-04-30T08:24:55;17.50;99.90
42803;DHT22;28447;48.682;9.022;2023-04-30T08:27:21;16.90;99.90
42803;DHT22;28447;48.682;9.022;2023-04-30T08:29:47;16.30;99.90
42803;DHT22;28447;48.682;9.022;2023-04-30T08:32:13;15.90;99.90
42803;DHT22;28447;48.682;9.022;2023-04-30T08:34:38;16.10;99.90
42803;DHT22;28447;48.682;9.022;2023-04-30T08:37:07;16.70;99.90
42803;DHT22;28447;48.682;9.022;2023-04-30T08:39:33;15.90;99.90
42803;DHT22;28447;48.682;9.022;2023-04-30T08:42:01;16.00;99.90
42803;DHT22;28447;48.682;9.022;2023-04-30T08:44:29;16.20;99.90
42803;DHT22;28447;48.682;9.022;2023-04-30T08:46:55;15.80;99.90
42803;DHT22;28447;48.682;9.022;2023-04-30T08:49:23;15.70;99.90
42803;DHT22;28447;48.682;9.022;2023-04-30T08:51:50;15.30;99.90
42803;DHT22;28447;48.682;9.022;2023-04-30T08:54:17;15.40;99.90
42803;DHT22;28447;48.682;9.022;2023-04-30T08:56:46;16.60;99.90
42803;DHT22;28447;48.682;9.022;2023-04-30T08:59:12;16.70;99.90
42803;DHT22;28447;48.682;9.022;2023-04-30T09:09:13;15.00;99.90
42803;DHT22;28447;48.682;9.022;2023-04-30T09:11:39;15.30;99.90
42803;DHT22;28447;48.682;9.022;2023-04-30T09:14:05;15.20;99.90
42803;DHT22;28447;48.682;9.022;2023-04-30T09:16:48;15.30;99.90
42803;DHT22;28447;48.682;9.022;2023-04-30T09:19:25;15.00;99.90
42803;DHT22;28447;48.682;9.022;2023-04-30T09:21:51;15.30;99.90
42803;DHT22;28447;48.682;9.022;2023-04-30T09:24:17;15.00;99.90
42803;DHT22;28447;48.682;9.022;2023-04-30T09:26:44;14.90;99.90
42803;DHT22;28447;48.682;9.022;2023-04-30T09:29:11;15.10;99.90
42803;DHT22;28447;48.682;9.022;2023-04-30T09:31:40;15.40;99.90
42803;DHT22;28447;48.682;9.022;2023-04-30T09:34:05;15.20;99.90
42803;DHT22;28447;48.682;9.022;2023-04-30T09:36:32;15.20;99.90
42803;DHT22;28447;48.682;9.022;2023-04-30T09:39:15;15.40;99.90
42803;DHT22;28447;48.682;9.022;2023-04-30T09:41:44;15.30;99.90
42803;DHT22;28447;48.682;9.022;2023-04-30T09:44:30;15.30;99.90
42803;DHT22;28447;48.682;9.022;2023-04-30T09:49:23;15.70;99.90
42803;DHT22;28447;48.682;9.022;2023-04-30T09:51:58;15.80;99.90
42803;DHT22;28447;48.682;9.022;2023-04-30T09:54:25;15.90;99.90
42803;DHT22;28447;48.682;9.022;2023-04-30T09:56:53;16.00;99.90
42803;DHT22;28447;48.682;9.022;2023-04-30T10:01:52;16.40;99.90
42803;DHT22;28447;48.682;9.022;2023-04-30T10:04:20;16.00;99.90
42803;DHT22;28447;48.682;9.022;2023-04-30T10:06:46;16.10;99.90
42803;DHT22;28447;48.682;9.022;2023-04-30T10:09:13;16.00;99.90
42803;DHT22;28447;48.682;9.022;2023-04-30T10:11:42;16.00;99.90
42803;DHT22;28447;48.682;9.022;2023-04-30T10:14:12;16.10;99.90
42803;DHT22;28447;48.682;9.022;2023-04-30T10:16:56;16.50;99.90
42803;DHT22;28447;48.682;9.022;2023-04-30T10:19:24;16.40;99.90
42803;DHT22;28447;48.682;9.022;2023-04-30T10:21:50;16.80;99.90
42803;DHT22;28447;48.682;9.022;2023-04-30T10:24:18;17.10;99.90
42803;DHT22;28447;48.682;9.022;2023-04-30T10:26:45;17.10;99.90
42803;DHT22;28447;48.682;9.022;2023-04-30T10:29:16;16.60;99.90
42803;DHT22;28447;48.682;9.022;2023-04-30T10:31:44;16.30;99.90
42803;DHT22;28447;48.682;9.022;2023-04-30T10:34:35;16.60;99.90
42803;DHT22;28447;48.682;9.022;2023-04-30T10:39:54;16.60;99.90
42803;DHT22;28447;48.682;9.022;2023-04-30T10:42:20;16.80;99.90
42803;DHT22;28447;48.682;9.022;2023-04-30T10:44:45;16.90;99.90
42803;DHT22;28447;48.682;9.022;2023-04-30T10:47:13;16.70;99.90
42803;DHT22;28447;48.682;9.022;2023-04-30T10:49:38;17.10;99.90
42803;DHT22;28447;48.682;9.022;2023-04-30T10:52:10;16.80;99.90
42803;DHT22;28447;48.682;9.022;2023-04-30T10:54:39;16.90;99.90
42803;DHT22;28447;48.682;9.022;2023-04-30T10:57:13;16.40;99.90
42803;DHT22;28447;48.682;9.022;2023-04-30T11:02:39;17.10;99.90
42803;DHT22;28447;48.682;9.022;2023-04-30T11:07:34;17.20;99.90
42803;DHT22;28447;48.682;9.022;2023-04-30T11:10:01;17.10;99.90
42803;DHT22;28447;48.682;9.022;2023-04-30T11:12:27;17.00;99.90
42803;DHT22;28447;48.682;9.022;2023-04-30T11:15:00;16.60;99.90
42803;DHT22;28447;48.682;9.022;2023-04-30T11:19:53;16.90;99.90
42803;DHT22;28447;48.682;9.022;2023-04-30T11:22:22;17.70;99.90
42803;DHT22;28447;48.682;9.022;2023-04-30T11:29:50;18.60;99.90
42803;DHT22;28447;48.682;9.022;2023-04-30T11:32:18;18.60;99.90
42803;DHT22;28447;48.682;9.022;2023-04-30T11:34:45;18.20;99.60
42803;DHT22;28447;48.682;9.022;2023-04-30T11:37:28;17.90;99.90
42803;DHT22;28447;48.682;9.022;2023-04-30T11:39:56;17.90;99.90
42803;DHT22;28447;48.682;9.022;2023-04-30T11:42:21;18.20;99.30
42803;DHT22;28447;48.682;9.022;2023-04-30T11:44:47;17.90;99.90
42803;DHT22;28447;48.682;9.022;2023-04-30T11:47:13;18.30;99.90
42803;DHT22;28447;48.682;9.022;2023-04-30T11:49:40;18.20;99.90
42803;DHT22;28447;48.682;9.022;2023-04-30T11:52:06;18.20;99.60
42803;DHT22;28447;48.682;9.022;2023-04-30T11:54:36;17.60;99.90
42803;DHT22;28447;48.682;9.022;2023-04-30T11:57:03;17.30;99.90
42803;DHT22;28447;48.682;9.022;2023-04-30T11:59:39;17.60;99.90
42803;DHT22;28447;48.682;9.022;2023-04-30T12:02:06;18.10;99.80
42803;DHT22;28447;48.682;9.022;2023-04-30T12:04:32;18.20;99.90
42803;DHT22;28447;48.682;9.022;2023-04-30T12:09:25;17.70;99.90
42803;DHT22;28447;48.682;9.022;2023-04-30T12:11:50;18.10;99.90
42803;DHT22;28447;48.682;9.022;2023-04-30T12:14:16;18.30;99.90
42803;DHT22;28447;48.682;9.022;2023-04-30T12:19:13;18.10;99.90
42803;DHT22;28447;48.682;9.022;2023-04-30T12:21:41;17.70;99.90
42803;DHT22;28447;48.682;9.022;2023-04-30T12:24:13;17.60;99.90
42803;DHT22;28447;48.682;9.022;2023-04-30T12:26:39;18.20;99.90
42803;DHT22;28447;48.682;9.022;2023-04-30T12:29:15;18.00;99.90
42803;DHT22;28447;48.682;9.022;2023-04-30T12:31:41;18.20;99.90
42803;DHT22;28447;48.682;9.022;2023-04-30T12:34:09;18.20;99.90
42803;DHT22;28447;48.682;9.022;2023-04-30T12:36:35;18.00;99.90
42803;DHT22;28447;48.682;9.022;2023-04-30T12:39:07;18.50;99.90
42803;DHT22;28447;48.682;9.022;2023-04-30T12:41:47;18.30;99.90
42803;DHT22;28447;48.682;9.022;2023-04-30T12:44:22;18.80;99.90
42803;DHT22;28447;48.682;9.022;2023-04-30T12:46:48;18.60;99.90
42803;DHT22;28447;48.682;9.022;2023-04-30T12:49:23;18.70;99.90
42803;DHT22;28447;48.682;9.022;2023-04-30T12:51:49;19.70;99.90
42803;DHT22;28447;48.682;9.022;2023-04-30T12:54:15;19.90;99.90
42803;DHT22;28447;48.682;9.022;2023-04-30T12:56:58;20.00;99.90
42803;DHT22;28447;48.682;9.022;2023-04-30T12:59:26;20.70;99.90
42803;DHT22;28447;48.682;9.022;2023-04-30T13:01:52;20.40;99.90
42803;DHT22;28447;48.682;9.022;2023-04-30T13:04:19;20.30;99.90
42803;DHT22;28447;48.682;9.022;2023-04-30T13:06:45;19.60;99.90
42803;DHT22;28447;48.682;9.022;2023-04-30T13:09:10;19.50;99.90
42803;DHT22;28447;48.682;9.022;2023-04-30T13:11:37;19.90;99.90
42803;DHT22;28447;48.682;9.022;2023-04-30T13:14:02;19.90;99.90
42803;DHT22;28447;48.682;9.022;2023-04-30T13:16:29;20.60;99.90
42803;DHT22;28447;48.682;9.022;2023-04-30T13:18:55;21.50;99.90
42803;DHT22;28447;48.682;9.022;2023-04-30T13:21:21;20.40;99.90
42803;DHT22;28447;48.682;9.022;2023-04-30T13:23:46;20.50;99.90
42803;DHT22;28447;48.682;9.022;2023-04-30T13:26:12;21.40;99.90
42803;DHT22;28447;48.682;9.022;2023-04-30T13:28:38;20.40;99.90
42803;DHT22;28447;48.682;9.022;2023-04-30T13:31:04;20.10;99.90
42803;DHT22;28447;48.682;9.022;2023-04-30T13:33:29;19.40;99.90
42803;DHT22;28447;48.682;9.022;2023-04-30T13:35:55;20.20;99.90
42803;DHT22;28447;48.682;9.022;2023-04-30T13:38:21;19.80;99.90
42803;DHT22;28447;48.682;9.022;2023-04-30T13:40:47;20.60;99.90
42803;DHT22;28447;48.682;9.022;2023-04-30T13:43:12;21.10;99.90
42803;DHT22;28447;48.682;9.022;2023-04-30T13:45:38;21.60;99.90
42803;DHT22;28447;48.682;9.022;2023-04-30T13:48:04;21.60;99.90
42803;DHT22;28447;48.682;9.022;2023-04-30T13:50:29;21.80;99.90
42803;DHT22;28447;48.682;9.022;2023-04-30T13:52:55;19.80;99.90
42803;DHT22;28447;48.682;9.022;2023-04-30T13:55:23;19.40;99.90
42803;DHT22;28447;48.682;9.022;2023-04-30T13:57:49;19.50;99.90
42803;DHT22;28447;48.682;9.022;2023-04-30T14:00:15;18.90;99.90
42803;DHT22;28447;48.682;9.022;2023-04-30T14:07:33;17.60;99.90
42803;DHT22;28447;48.682;9.022;2023-04-30T14:09:59;17.90;99.90
42803;DHT22;28447;48.682;9.022;2023-04-30T14:17:17;18.50;99.90
42803;DHT22;28447;48.682;9.022;2023-04-30T14:19:43;19.10;99.90
42803;DHT22;28447;48.682;9.022;2023-04-30T14:22:09;19.10;99.90
42803;DHT22;28447;48.682;9.022;2023-04-30T14:24:34;18.70;99.90
42803;DHT22;28447;48.682;9.022;2023-04-30T14:27:00;19.20;99.90
42803;DHT22;28447;48.682;9.022;2023-04-30T14:29:28;20.40;99.90
42803;DHT22;28447;48.682;9.022;2023-04-30T14:31:54;21.10;99.90
42803;DHT22;28447;48.682;9.022;2023-04-30T14:34:19;21.00;99.90
42803;DHT22;28447;48.682;9.022;2023-04-30T14:48:58;21.40;99.90
42803;DHT22;28447;48.682;9.022;2023-04-30T14:51:24;21.10;99.90
42803;DHT22;28447;48.682;9.022;2023-04-30T14:53:49;21.40;99.60
42803;DHT22;28447;48.682;9.022;2023-04-30T14:56:15;20.80;99.90
42803;DHT22;28447;48.682;9.022;2023-04-30T14:58:41;20.80;99.90
42803;DHT22;28447;48.682;9.022;2023-04-30T15:01:06;20.40;99.90
42803;DHT22;28447;48.682;9.022;2023-04-30T15:03:32;20.50;99.90
42803;DHT22;28447;48.682;9.022;2023-04-30T15:05:58;19.80;99.90
42803;DHT22;28447;48.682;9.022;2023-04-30T15:08:23;20.20;99.90
42803;DHT22;28447;48.682;9.022;2023-04-30T15:10:49;20.80;99.70
42803;DHT22;28447;48.682;9.022;2023-04-30T15:13:15;20.50;99.80
42803;DHT22;28447;48.682;9.022;2023-04-30T15:15:40;20.20;99.90
42803;DHT22;28447;48.682;9.022;2023-04-30T15:18:07;20.10;99.90
42803;DHT22;28447;48.682;9.022;2023-04-30T15:20:34;20.30;99.90
42803;DHT22;28447;48.682;9.022;2023-04-30T15:23:00;20.30;99.90
42803;DHT22;28447;48.682;9.022;2023-04-30T15:25:26;19.40;99.90
42803;DHT22;28447;48.682;9.022;2023-04-30T15:27:52;19.70;99.90
42803;DHT22;28447;48.682;9.022;2023-04-30T15:30:17;19.70;99.90
42803;DHT22;28447;48.682;9.022;2023-04-30T15:32:43;19.10;99.90
42803;DHT22;28447;48.682;9.022;2023-04-30T15:35:09;19.00;99.90
42803;DHT22;28447;48.682;9.022;2023-04-30T15:37:35;19.70;99.90
42803;DHT22;28447;48.682;9.022;2023-04-30T15:40:01;20.10;99.90
42803;DHT22;28447;48.682;9.022;2023-04-30T15:42:27;20.50;99.90
42803;DHT22;28447;48.682;9.022;2023-04-30T15:44:52;20.40;99.90
42803;DHT22;28447;48.682;9.022;2023-04-30T15:47:18;20.40;99.90
42803;DHT22;28447;48.682;9.022;2023-04-30T15:49:44;20.00;99.90
42803;DHT22;28447;48.682;9.022;2023-04-30T15:57:02;18.60;99.90
42803;DHT22;28447;48.682;9.022;2023-04-30T15:59:28;18.80;99.90
42803;DHT22;28447;48.682;9.022;2023-04-30T16:01:53;18.70;99.90
42803;DHT22;28447;48.682;9.022;2023-04-30T16:11:37;18.50;99.90
42803;DHT22;28447;48.682;9.022;2023-04-30T16:14:05;18.90;99.90
42803;DHT22;28447;48.682;9.022;2023-04-30T16:16:31;18.50;99.90
42803;DHT22;28447;48.682;9.022;2023-04-30T16:18:57;18.60;99.90
42803;DHT22;28447;48.682;9.022;2023-04-30T16:21:22;18.20;99.90
42803;DHT22;28447;48.682;9.022;2023-04-30T16:23:49;17.80;99.90
42803;DHT22;28447;48.682;9.022;2023-04-30T16:26:17;17.60;99.90
42803;DHT22;28447;48.682;9.022;2023-04-30T16:28:44;17.80;99.90
42803;DHT22;28447;48.682;9.022;2023-04-30T16:31:11;17.40;99.90
42803;DHT22;28447;48.682;9.022;2023-04-30T16:33:38;17.30;99.90
42803;DHT22;28447;48.682;9.022;2023-04-30T16:36:04;17.50;99.90
42803;DHT22;28447;48.682;9.022;2023-04-30T16:38:30;17.50;99.90
42803;DHT22;28447;48.682;9.022;2023-04-30T17:02:52;16.00;99.90
42803;DHT22;28447;48.682;9.022;2023-04-30T17:05:18;16.20;99.90
42803;DHT22;28447;48.682;9.022;2023-04-30T17:07:44;16.40;99.90
42803;DHT22;28447;48.682;9.022;2023-04-30T17:10:11;16.30;99.90
42803;DHT22;28447;48.682;9.022;2023-04-30T17:12:37;16.20;99.90
42803;DHT22;28447;48.682;9.022;2023-04-30T17:15:03;16.20;99.90
42803;DHT22;28447;48.682;9.022;2023-04-30T17:17:29;15.90;99.90
42803;DHT22;28447;48.682;9.022;2023-04-30T17:19:56;16.00;99.90
42803;DHT22;28447;48.682;9.022;2023-04-30T17:22:22;16.10;99.90
42803;DHT22;28447;48.682;9.022;2023-04-30T17:24:48;16.00;99.90
42803;DHT22;28447;48.682;9.022;2023-04-30T17:27:14;15.80;99.90
42803;DHT22;28447;48.682;9.022;2023-04-30T17:29:40;15.70;99.90
42803;DHT22;28447;48.682;9.022;2023-04-30T17:32:06;15.70;99.90
42803;DHT22;28447;48.682;9.022;2023-04-30T17:34:32;15.50;99.90
42803;DHT22;28447;48.682;9.022;2023-04-30T17:36:57;15.60;99.90
42803;DHT22;28447;48.682;9.022;2023-04-30T17:39:23;15.30;99.90
42803;DHT22;28447;48.682;9.022;2023-04-30T17:44:15;15.30;99.90
42803;DHT22;28447;48.682;9.022;2023-04-30T17:46:41;15.20;99.90
42803;DHT22;28447;48.682;9.022;2023-04-30T17:49:08;15.10;99.90
42803;DHT22;28447;48.682;9.022;2023-04-30T17:51:34;15.10;99.90
42803;DHT22;28447;48.682;9.022;2023-04-30T17:53:59;15.10;99.90
42803;DHT22;28447;48.682;9.022;2023-04-30T17:56:27;15.00;99.90
42803;DHT22;28447;48.682;9.022;2023-04-30T17:58:54;14.80;99.90
42803;DHT22;28447;48.682;9.022;2023-04-30T18:01:20;14.70;99.90
42803;DHT22;28447;48.682;9.022;2023-04-30T18:03:47;14.60;99.90
42803;DHT22;28447;48.682;9.022;2023-04-30T18:06:12;14.60;99.90
42803;DHT22;28447;48.682;9.022;2023-04-30T18:08:38;14.50;99.90
42803;DHT22;28447;48.682;9.022;2023-04-30T18:11:04;14.40;99.90
42803;DHT22;28447;48.682;9.022;2023-04-30T18:13:29;14.50;99.90
42803;DHT22;28447;48.682;9.022;2023-04-30T18:15:56;14.30;99.90
42803;DHT22;28447;48.682;9.022;2023-04-30T18:18:21;14.30;99.90
42803;DHT22;28447;48.682;9.022;2023-04-30T18:30:36;14.00;99.90
42803;DHT22;28447;48.682;9.022;2023-04-30T18:33:05;14.00;99.90
42803;DHT22;28447;48.682;9.022;2023-04-30T18:35:32;14.00;99.90
42803;DHT22;28447;48.682;9.022;2023-04-30T18:37:59;13.90;99.90
42803;DHT22;28447;48.682;9.022;2023-04-30T18:40:24;13.90;99.90
42803;DHT22;28447;48.682;9.022;2023-04-30T18:42:50;13.90;99.90
42803;DHT22;28447;48.682;9.022;2023-04-30T18:45:16;13.80;99.90
42803;DHT22;28447;48.682;9.022;2023-04-30T18:47:42;13.80;99.90
42803;DHT22;28447;48.682;9.022;2023-04-30T18:50:08;13.80;99.90
42803;DHT22;28447;48.682;9.022;2023-04-30T19:09:45;13.50;99.90
42803;DHT22;28447;48.682;9.022;2023-04-30T19:12:13;13.50;99.90
42803;DHT22;28447;48.682;9.022;2023-04-30T19:14:42;13.40;99.90
42803;DHT22;28447;48.682;9.022;2023-04-30T19:17:08;13.40;99.90
42803;DHT22;28447;48.682;9.022;2023-04-30T19:19:34;13.30;99.90
42803;DHT22;28447;48.682;9.022;2023-04-30T19:22:00;13.30;99.90
42803;DHT22;28447;48.682;9.022;2023-04-30T19:24:26;13.20;99.90
42803;DHT22;28447;48.682;9.022;2023-04-30T19:26:51;13.20;99.90
42803;DHT22;28447;48.682;9.022;2023-04-30T19:29:17;13.20;99.90
42803;DHT22;28447;48.682;9.022;2023-04-30T19:31:43;13.10;99.90
42803;DHT22;28447;48.682;9.022;2023-04-30T19:34:09;13.10;99.90
42803;DHT22;28447;48.682;9.022;2023-04-30T19:36:35;12.90;99.90
42803;DHT22;28447;48.682;9.022;2023-04-30T19:39:01;12.80;99.90
42803;DHT22;28447;48.682;9.022;2023-04-30T19:41:28;12.70;99.90
42803;DHT22;28447;48.682;9.022;2023-04-30T19:43:54;12.60;99.90
42803;DHT22;28447;48.682;9.022;2023-04-30T19:46:20;12.50;99.90
42803;DHT22;28447;48.682;9.022;2023-04-30T19:51:12;12.50;99.90
42803;DHT22;28447;48.682;9.022;2023-04-30T19:53:37;12.40;99.90
42803;DHT22;28447;48.682;9.022;2023-04-30T19:56:03;12.40;99.90
42803;DHT22;28447;48.682;9.022;2023-04-30T19:58:29;12.40;99.90
42803;DHT22;28447;48.682;9.022;2023-04-30T20:00:54;12.30;99.90
42803;DHT22;28447;48.682;9.022;2023-04-30T20:03:21;12.30;99.90
42803;DHT22;28447;48.682;9.022;2023-04-30T20:05:46;12.10;99.90
42803;DHT22;28447;48.682;9.022;2023-04-30T20:08:12;12.00;99.90
42803;DHT22;28447;48.682;9.022;2023-04-30T20:10:38;11.90;99.90
42803;DHT22;28447;48.682;9.022;2023-04-30T20:13:06;12.00;99.90
42803;DHT22;28447;48.682;9.022;2023-04-30T20:15:31;11.90;99.90
42803;DHT22;28447;48.682;9.022;2023-04-30T20:17:58;11.80;99.90
42803;DHT22;28447;48.682;9.022;2023-04-30T20:20:24;11.90;99.90
42803;DHT22;28447;48.682;9.022;2023-04-30T20:22:52;12.00;99.90
42803;DHT22;28447;48.682;9.022;2023-04-30T21:43:25;10.80;99.90
42803;DHT22;28447;48.682;9.022;2023-04-30T21:45:51;10.70;99.90
42803;DHT22;28447;48.682;9.022;2023-04-30T21:48:17;10.60;99.90
42803;DHT22;28447;48.682;9.022;2023-04-30T21:50:43;10.60;99.90
42803;DHT22;28447;48.682;9.022;2023-04-30T21:53:09;10.40;99.90
42803;DHT22;28447;48.682;9.022;2023-04-30T21:55:34;10.40;99.90
42803;DHT22;28447;48.682;9.022;2023-04-30T21:58:00;10.40;99.90
